sensor_id;sensor_type;location;lat;lon;timestamp;P1;durP1;ratioP1;P2;durP2;ratioP2
46723;SDS011;32463;48.298;11.620;2023-03-01T00:01:03;24.80;;;13.75;;
46723;SDS011;32463;48.298;11.620;2023-03-01T00:03:32;24.77;;;14.23;;
46723;SDS011;32463;48.298;11.620;2023-03-01T00:05:59;24.65;;;13.23;;
46723;SDS011;32463;48.298;11.620;2023-03-01T00:08:26;23.95;;;12.63;;
46723;SDS011;32463;48.298;11.620;2023-03-01T00:11:03;23.50;;;13.25;;
46723;SDS011;32463;48.298;11.620;2023-03-01T00:13:30;24.85;;;12.90;;
46723;SDS011;32463;48.298;11.620;2023-03-01T00:15:57;24.27;;;13.10;;
46723;SDS011;32463;48.298;11.620;2023-03-01T00:18:23;23.15;;;13.38;;
46723;SDS011;32463;48.298;11.620;2023-03-01T00:20:54;27.15;;;13.80;;
46723;SDS011;32463;48.298;11.620;2023-03-01T00:23:21;24.05;;;13.45;;
46723;SDS011;32463;48.298;11.620;2023-03-01T00:25:49;23.45;;;12.93;;
46723;SDS011;32463;48.298;11.620;2023-03-01T00:28:17;23.88;;;13.95;;
46723;SDS011;32463;48.298;11.620;2023-03-01T00:30:44;21.52;;;13.52;;
46723;SDS011;32463;48.298;11.620;2023-03-01T00:33:11;30.70;;;13.27;;
46723;SDS011;32463;48.298;11.620;2023-03-01T00:35:37;23.33;;;13.00;;
46723;SDS011;32463;48.298;11.620;2023-03-01T00:38:04;26.20;;;13.50;;
46723;SDS011;32463;48.298;11.620;2023-03-01T00:40:32;22.35;;;13.32;;
46723;SDS011;32463;48.298;11.620;2023-03-01T00:43:00;26.20;;;14.15;;
46723;SDS011;32463;48.298;11.620;2023-03-01T00:45:27;23.25;;;13.10;;
46723;SDS011;32463;48.298;11.620;2023-03-01T00:47:56;27.92;;;12.98;;
46723;SDS011;32463;48.298;11.620;2023-03-01T00:50:23;22.42;;;13.45;;
46723;SDS011;32463;48.298;11.620;2023-03-01T00:52:54;22.95;;;13.18;;
46723;SDS011;32463;48.298;11.620;2023-03-01T00:55:22;25.55;;;13.02;;
46723;SDS011;32463;48.298;11.620;2023-03-01T00:57:49;26.30;;;13.75;;
46723;SDS011;32463;48.298;11.620;2023-03-01T01:00:17;24.40;;;13.38;;
46723;SDS011;32463;48.298;11.620;2023-03-01T01:02:46;23.90;;;14.07;;
46723;SDS011;32463;48.298;11.620;2023-03-01T01:05:12;23.20;;;13.48;;
46723;SDS011;32463;48.298;11.620;2023-03-01T01:07:39;23.90;;;13.07;;
46723;SDS011;32463;48.298;11.620;2023-03-01T01:10:06;24.45;;;13.07;;
46723;SDS011;32463;48.298;11.620;2023-03-01T01:12:33;22.98;;;13.65;;
46723;SDS011;32463;48.298;11.620;2023-03-01T01:14:59;26.02;;;13.80;;
46723;SDS011;32463;48.298;11.620;2023-03-01T01:17:26;21.48;;;13.02;;
46723;SDS011;32463;48.298;11.620;2023-03-01T01:19:52;25.60;;;13.68;;
46723;SDS011;32463;48.298;11.620;2023-03-01T01:22:18;23.63;;;13.20;;
46723;SDS011;32463;48.298;11.620;2023-03-01T01:24:45;27.58;;;13.95;;
46723;SDS011;32463;48.298;11.620;2023-03-01T01:27:12;22.63;;;13.13;;
46723;SDS011;32463;48.298;11.620;2023-03-01T01:29:38;21.70;;;12.95;;
46723;SDS011;32463;48.298;11.620;2023-03-01T01:32:04;23.52;;;13.55;;
46723;SDS011;32463;48.298;11.620;2023-03-01T01:34:31;26.20;;;13.95;;
46723;SDS011;32463;48.298;11.620;2023-03-01T01:36:57;24.00;;;13.55;;
46723;SDS011;32463;48.298;11.620;2023-03-01T01:39:27;22.77;;;14.23;;
46723;SDS011;32463;48.298;11.620;2023-03-01T01:41:54;24.88;;;13.55;;
46723;SDS011;32463;48.298;11.620;2023-03-01T01:46:50;21.95;;;13.07;;
46723;SDS011;32463;48.298;11.620;2023-03-01T01:52:26;25.63;;;13.43;;
46723;SDS011;32463;48.298;11.620;2023-03-01T01:57:34;23.83;;;13.10;;
46723;SDS011;32463;48.298;11.620;2023-03-01T02:00:09;23.85;;;13.55;;
46723;SDS011;32463;48.298;11.620;2023-03-01T02:02:41;22.45;;;12.30;;
46723;SDS011;32463;48.298;11.620;2023-03-01T02:05:20;21.25;;;12.95;;
46723;SDS011;32463;48.298;11.620;2023-03-01T02:07:52;24.60;;;14.38;;
46723;SDS011;32463;48.298;11.620;2023-03-01T02:10:19;24.67;;;13.55;;
46723;SDS011;32463;48.298;11.620;2023-03-01T02:12:48;22.85;;;13.32;;
46723;SDS011;32463;48.298;11.620;2023-03-01T02:15:15;21.45;;;12.88;;
46723;SDS011;32463;48.298;11.620;2023-03-01T02:17:42;22.70;;;13.65;;
46723;SDS011;32463;48.298;11.620;2023-03-01T02:20:13;24.77;;;13.55;;
46723;SDS011;32463;48.298;11.620;2023-03-01T02:22:43;23.05;;;13.27;;
46723;SDS011;32463;48.298;11.620;2023-03-01T02:30:35;22.27;;;13.05;;
46723;SDS011;32463;48.298;11.620;2023-03-01T02:33:02;23.73;;;12.90;;
46723;SDS011;32463;48.298;11.620;2023-03-01T02:35:29;23.55;;;13.35;;
46723;SDS011;32463;48.298;11.620;2023-03-01T02:38:03;23.02;;;13.07;;
46723;SDS011;32463;48.298;11.620;2023-03-01T02:40:34;26.83;;;13.52;;
46723;SDS011;32463;48.298;11.620;2023-03-01T02:43:04;25.58;;;14.52;;
46723;SDS011;32463;48.298;11.620;2023-03-01T02:45:35;23.67;;;13.25;;
46723;SDS011;32463;48.298;11.620;2023-03-01T02:48:01;23.33;;;13.23;;
46723;SDS011;32463;48.298;11.620;2023-03-01T02:53:00;24.17;;;13.88;;
46723;SDS011;32463;48.298;11.620;2023-03-01T02:55:35;26.05;;;13.32;;
46723;SDS011;32463;48.298;11.620;2023-03-01T02:58:02;25.17;;;13.82;;
46723;SDS011;32463;48.298;11.620;2023-03-01T03:00:34;21.65;;;12.63;;
46723;SDS011;32463;48.298;11.620;2023-03-01T03:03:05;22.38;;;13.18;;
46723;SDS011;32463;48.298;11.620;2023-03-01T03:05:32;24.48;;;13.27;;
46723;SDS011;32463;48.298;11.620;2023-03-01T03:07:59;24.83;;;13.52;;
46723;SDS011;32463;48.298;11.620;2023-03-01T03:10:29;24.73;;;13.10;;
46723;SDS011;32463;48.298;11.620;2023-03-01T03:12:59;21.30;;;12.35;;
46723;SDS011;32463;48.298;11.620;2023-03-01T03:15:27;24.52;;;13.27;;
46723;SDS011;32463;48.298;11.620;2023-03-01T03:17:56;22.27;;;12.30;;
46723;SDS011;32463;48.298;11.620;2023-03-01T03:20:25;23.95;;;12.60;;
46723;SDS011;32463;48.298;11.620;2023-03-01T03:22:53;22.30;;;12.93;;
46723;SDS011;32463;48.298;11.620;2023-03-01T03:25:21;21.45;;;12.27;;
46723;SDS011;32463;48.298;11.620;2023-03-01T03:27:49;22.63;;;12.90;;
46723;SDS011;32463;48.298;11.620;2023-03-01T03:30:22;20.35;;;12.52;;
46723;SDS011;32463;48.298;11.620;2023-03-01T03:32:52;26.13;;;13.18;;
46723;SDS011;32463;48.298;11.620;2023-03-01T03:37:48;25.80;;;13.07;;
46723;SDS011;32463;48.298;11.620;2023-03-01T03:43:12;22.55;;;13.40;;
46723;SDS011;32463;48.298;11.620;2023-03-01T03:45:40;25.83;;;13.25;;
46723;SDS011;32463;48.298;11.620;2023-03-01T03:48:08;22.17;;;13.23;;
46723;SDS011;32463;48.298;11.620;2023-03-01T03:50:35;27.17;;;13.32;;
46723;SDS011;32463;48.298;11.620;2023-03-01T03:53:03;26.92;;;14.23;;
46723;SDS011;32463;48.298;11.620;2023-03-01T03:55:32;24.77;;;13.88;;
46723;SDS011;32463;48.298;11.620;2023-03-01T03:57:59;22.42;;;12.82;;
46723;SDS011;32463;48.298;11.620;2023-03-01T04:02:58;24.58;;;13.60;;
46723;SDS011;32463;48.298;11.620;2023-03-01T04:05:26;24.05;;;14.50;;
46723;SDS011;32463;48.298;11.620;2023-03-01T04:07:53;29.90;;;14.52;;
46723;SDS011;32463;48.298;11.620;2023-03-01T04:10:26;21.08;;;12.25;;
46723;SDS011;32463;48.298;11.620;2023-03-01T04:12:57;24.75;;;13.52;;
46723;SDS011;32463;48.298;11.620;2023-03-01T04:15:25;29.40;;;15.15;;
46723;SDS011;32463;48.298;11.620;2023-03-01T04:17:53;28.33;;;14.40;;
46723;SDS011;32463;48.298;11.620;2023-03-01T04:20:22;28.20;;;14.32;;
46723;SDS011;32463;48.298;11.620;2023-03-01T04:22:58;28.08;;;14.85;;
46723;SDS011;32463;48.298;11.620;2023-03-01T04:25:35;26.05;;;14.55;;
46723;SDS011;32463;48.298;11.620;2023-03-01T04:28:08;26.65;;;14.13;;
46723;SDS011;32463;48.298;11.620;2023-03-01T04:30:36;27.20;;;15.00;;
46723;SDS011;32463;48.298;11.620;2023-03-01T04:33:06;28.35;;;14.18;;
46723;SDS011;32463;48.298;11.620;2023-03-01T04:35:35;28.98;;;15.20;;
46723;SDS011;32463;48.298;11.620;2023-03-01T04:38:02;29.83;;;15.05;;
46723;SDS011;32463;48.298;11.620;2023-03-01T04:40:30;25.80;;;14.35;;
46723;SDS011;32463;48.298;11.620;2023-03-01T04:42:56;28.33;;;14.73;;
46723;SDS011;32463;48.298;11.620;2023-03-01T04:45:23;27.27;;;14.00;;
46723;SDS011;32463;48.298;11.620;2023-03-01T04:47:49;28.92;;;14.98;;
46723;SDS011;32463;48.298;11.620;2023-03-01T04:50:17;36.20;;;15.23;;
46723;SDS011;32463;48.298;11.620;2023-03-01T04:52:45;29.88;;;15.10;;
46723;SDS011;32463;48.298;11.620;2023-03-01T04:55:13;31.15;;;14.32;;
46723;SDS011;32463;48.298;11.620;2023-03-01T04:57:40;27.45;;;14.23;;
46723;SDS011;32463;48.298;11.620;2023-03-01T05:00:07;26.13;;;14.02;;
46723;SDS011;32463;48.298;11.620;2023-03-01T05:02:54;29.58;;;15.80;;
46723;SDS011;32463;48.298;11.620;2023-03-01T05:07:53;30.73;;;15.00;;
46723;SDS011;32463;48.298;11.620;2023-03-01T05:10:24;26.92;;;15.18;;
46723;SDS011;32463;48.298;11.620;2023-03-01T05:12:52;32.47;;;16.08;;
46723;SDS011;32463;48.298;11.620;2023-03-01T05:15:18;27.48;;;14.25;;
46723;SDS011;32463;48.298;11.620;2023-03-01T05:17:47;31.58;;;14.48;;
46723;SDS011;32463;48.298;11.620;2023-03-01T05:20:15;26.23;;;14.05;;
46723;SDS011;32463;48.298;11.620;2023-03-01T05:22:42;29.00;;;15.18;;
46723;SDS011;32463;48.298;11.620;2023-03-01T05:25:08;28.92;;;14.90;;
46723;SDS011;32463;48.298;11.620;2023-03-01T05:27:35;30.75;;;15.23;;
46723;SDS011;32463;48.298;11.620;2023-03-01T05:30:02;27.25;;;14.38;;
46723;SDS011;32463;48.298;11.620;2023-03-01T05:32:39;28.63;;;15.18;;
46723;SDS011;32463;48.298;11.620;2023-03-01T05:35:21;27.52;;;15.23;;
46723;SDS011;32463;48.298;11.620;2023-03-01T05:37:48;27.55;;;14.23;;
46723;SDS011;32463;48.298;11.620;2023-03-01T05:40:19;24.90;;;14.20;;
46723;SDS011;32463;48.298;11.620;2023-03-01T05:42:55;31.40;;;15.23;;
46723;SDS011;32463;48.298;11.620;2023-03-01T05:45:23;27.23;;;13.68;;
46723;SDS011;32463;48.298;11.620;2023-03-01T05:47:51;29.17;;;15.43;;
46723;SDS011;32463;48.298;11.620;2023-03-01T05:50:18;29.63;;;14.95;;
46723;SDS011;32463;48.298;11.620;2023-03-01T05:52:48;29.70;;;15.68;;
46723;SDS011;32463;48.298;11.620;2023-03-01T05:55:17;28.90;;;14.93;;
46723;SDS011;32463;48.298;11.620;2023-03-01T05:57:45;26.95;;;13.82;;
46723;SDS011;32463;48.298;11.620;2023-03-01T06:00:14;29.45;;;15.45;;
46723;SDS011;32463;48.298;11.620;2023-03-01T06:02:42;31.83;;;15.80;;
46723;SDS011;32463;48.298;11.620;2023-03-01T06:05:09;27.30;;;15.18;;
46723;SDS011;32463;48.298;11.620;2023-03-01T06:07:38;28.05;;;14.63;;
46723;SDS011;32463;48.298;11.620;2023-03-01T06:10:06;26.45;;;15.50;;
46723;SDS011;32463;48.298;11.620;2023-03-01T06:12:34;28.60;;;15.82;;
46723;SDS011;32463;48.298;11.620;2023-03-01T06:15:01;28.38;;;14.88;;
46723;SDS011;32463;48.298;11.620;2023-03-01T06:17:30;26.33;;;13.82;;
46723;SDS011;32463;48.298;11.620;2023-03-01T06:19:57;28.38;;;14.57;;
46723;SDS011;32463;48.298;11.620;2023-03-01T06:22:24;27.52;;;14.82;;
46723;SDS011;32463;48.298;11.620;2023-03-01T06:24:50;28.52;;;15.20;;
46723;SDS011;32463;48.298;11.620;2023-03-01T06:27:16;28.52;;;15.20;;
46723;SDS011;32463;48.298;11.620;2023-03-01T06:29:43;28.38;;;15.40;;
46723;SDS011;32463;48.298;11.620;2023-03-01T06:32:09;26.45;;;14.85;;
46723;SDS011;32463;48.298;11.620;2023-03-01T06:34:36;30.83;;;14.20;;
46723;SDS011;32463;48.298;11.620;2023-03-01T06:37:02;27.75;;;14.52;;
46723;SDS011;32463;48.298;11.620;2023-03-01T06:39:31;29.33;;;14.77;;
46723;SDS011;32463;48.298;11.620;2023-03-01T06:41:58;29.40;;;15.45;;
46723;SDS011;32463;48.298;11.620;2023-03-01T06:44:25;32.88;;;14.32;;
46723;SDS011;32463;48.298;11.620;2023-03-01T06:46:52;27.67;;;15.25;;
46723;SDS011;32463;48.298;11.620;2023-03-01T06:49:19;28.58;;;14.65;;
46723;SDS011;32463;48.298;11.620;2023-03-01T06:51:46;26.13;;;13.93;;
46723;SDS011;32463;48.298;11.620;2023-03-01T06:54:12;31.80;;;15.55;;
46723;SDS011;32463;48.298;11.620;2023-03-01T06:56:39;28.70;;;15.32;;
46723;SDS011;32463;48.298;11.620;2023-03-01T06:59:05;29.38;;;14.52;;
46723;SDS011;32463;48.298;11.620;2023-03-01T07:01:32;31.27;;;15.93;;
46723;SDS011;32463;48.298;11.620;2023-03-01T07:03:59;35.28;;;15.48;;
46723;SDS011;32463;48.298;11.620;2023-03-01T07:06:25;30.10;;;14.63;;
46723;SDS011;32463;48.298;11.620;2023-03-01T07:08:52;30.25;;;14.60;;
46723;SDS011;32463;48.298;11.620;2023-03-01T07:11:18;27.10;;;14.48;;
46723;SDS011;32463;48.298;11.620;2023-03-01T07:13:44;28.63;;;15.32;;
46723;SDS011;32463;48.298;11.620;2023-03-01T07:16:11;29.55;;;14.90;;
46723;SDS011;32463;48.298;11.620;2023-03-01T07:18:39;26.77;;;14.05;;
46723;SDS011;32463;48.298;11.620;2023-03-01T07:21:06;28.35;;;14.48;;
46723;SDS011;32463;48.298;11.620;2023-03-01T07:23:34;32.03;;;14.73;;
46723;SDS011;32463;48.298;11.620;2023-03-01T07:26:00;32.03;;;15.27;;
46723;SDS011;32463;48.298;11.620;2023-03-01T07:28:27;28.70;;;14.77;;
46723;SDS011;32463;48.298;11.620;2023-03-01T07:30:54;28.25;;;13.90;;
46723;SDS011;32463;48.298;11.620;2023-03-01T07:33:20;26.42;;;14.50;;
46723;SDS011;32463;48.298;11.620;2023-03-01T07:35:47;32.40;;;15.70;;
46723;SDS011;32463;48.298;11.620;2023-03-01T07:38:13;27.20;;;14.52;;
46723;SDS011;32463;48.298;11.620;2023-03-01T07:40:40;29.13;;;14.90;;
46723;SDS011;32463;48.298;11.620;2023-03-01T07:43:06;26.10;;;14.38;;
46723;SDS011;32463;48.298;11.620;2023-03-01T07:45:33;26.55;;;14.63;;
46723;SDS011;32463;48.298;11.620;2023-03-01T07:47:59;26.42;;;14.35;;
46723;SDS011;32463;48.298;11.620;2023-03-01T07:50:26;27.40;;;15.38;;
46723;SDS011;32463;48.298;11.620;2023-03-01T07:52:52;30.60;;;15.18;;
46723;SDS011;32463;48.298;11.620;2023-03-01T07:55:18;31.25;;;15.63;;
46723;SDS011;32463;48.298;11.620;2023-03-01T07:57:45;27.65;;;15.48;;
46723;SDS011;32463;48.298;11.620;2023-03-01T08:00:12;30.92;;;16.42;;
46723;SDS011;32463;48.298;11.620;2023-03-01T08:02:39;38.20;;;16.27;;
46723;SDS011;32463;48.298;11.620;2023-03-01T08:05:07;30.40;;;14.85;;
46723;SDS011;32463;48.298;11.620;2023-03-01T08:07:35;36.50;;;16.05;;
46723;SDS011;32463;48.298;11.620;2023-03-01T08:10:02;31.77;;;16.38;;
46723;SDS011;32463;48.298;11.620;2023-03-01T08:12:28;32.03;;;15.63;;
46723;SDS011;32463;48.298;11.620;2023-03-01T08:14:55;27.75;;;15.40;;
46723;SDS011;32463;48.298;11.620;2023-03-01T08:17:22;28.50;;;15.88;;
46723;SDS011;32463;48.298;11.620;2023-03-01T08:19:48;29.17;;;15.82;;
46723;SDS011;32463;48.298;11.620;2023-03-01T08:22:15;27.70;;;14.38;;
46723;SDS011;32463;48.298;11.620;2023-03-01T08:24:43;27.80;;;14.73;;
46723;SDS011;32463;48.298;11.620;2023-03-01T08:27:10;29.13;;;14.70;;
46723;SDS011;32463;48.298;11.620;2023-03-01T08:29:37;29.98;;;15.32;;
46723;SDS011;32463;48.298;11.620;2023-03-01T08:32:05;29.00;;;15.63;;
46723;SDS011;32463;48.298;11.620;2023-03-01T08:34:32;30.42;;;15.40;;
46723;SDS011;32463;48.298;11.620;2023-03-01T08:37:00;29.05;;;15.30;;
46723;SDS011;32463;48.298;11.620;2023-03-01T08:39:29;24.48;;;13.95;;
46723;SDS011;32463;48.298;11.620;2023-03-01T08:41:56;30.33;;;15.63;;
46723;SDS011;32463;48.298;11.620;2023-03-01T08:44:23;29.08;;;15.43;;
46723;SDS011;32463;48.298;11.620;2023-03-01T08:46:50;31.17;;;15.95;;
46723;SDS011;32463;48.298;11.620;2023-03-01T08:49:18;28.27;;;16.38;;
46723;SDS011;32463;48.298;11.620;2023-03-01T08:51:46;29.02;;;14.73;;
46723;SDS011;32463;48.298;11.620;2023-03-01T08:54:14;26.77;;;15.73;;
46723;SDS011;32463;48.298;11.620;2023-03-01T08:56:43;29.17;;;15.93;;
46723;SDS011;32463;48.298;11.620;2023-03-01T08:59:13;28.40;;;14.95;;
46723;SDS011;32463;48.298;11.620;2023-03-01T09:01:41;29.92;;;15.07;;
46723;SDS011;32463;48.298;11.620;2023-03-01T09:04:10;28.58;;;15.98;;
46723;SDS011;32463;48.298;11.620;2023-03-01T09:06:37;26.75;;;15.02;;
46723;SDS011;32463;48.298;11.620;2023-03-01T09:09:04;26.70;;;14.73;;
46723;SDS011;32463;48.298;11.620;2023-03-01T09:11:31;30.00;;;15.52;;
46723;SDS011;32463;48.298;11.620;2023-03-01T09:13:58;26.33;;;14.65;;
46723;SDS011;32463;48.298;11.620;2023-03-01T09:16:24;28.33;;;15.48;;
46723;SDS011;32463;48.298;11.620;2023-03-01T09:18:51;32.58;;;15.70;;
46723;SDS011;32463;48.298;11.620;2023-03-01T09:21:19;30.02;;;15.38;;
46723;SDS011;32463;48.298;11.620;2023-03-01T09:23:48;31.88;;;15.75;;
46723;SDS011;32463;48.298;11.620;2023-03-01T09:26:16;27.90;;;15.35;;
46723;SDS011;32463;48.298;11.620;2023-03-01T09:28:44;28.83;;;14.98;;
46723;SDS011;32463;48.298;11.620;2023-03-01T09:31:12;26.58;;;15.50;;
46723;SDS011;32463;48.298;11.620;2023-03-01T09:33:40;29.25;;;15.55;;
46723;SDS011;32463;48.298;11.620;2023-03-01T09:36:10;28.42;;;15.77;;
46723;SDS011;32463;48.298;11.620;2023-03-01T09:38:39;28.35;;;15.18;;
46723;SDS011;32463;48.298;11.620;2023-03-01T09:44:12;25.23;;;14.80;;
46723;SDS011;32463;48.298;11.620;2023-03-01T09:46:43;26.02;;;15.10;;
46723;SDS011;32463;48.298;11.620;2023-03-01T09:49:15;27.20;;;15.70;;
46723;SDS011;32463;48.298;11.620;2023-03-01T09:52:01;27.13;;;15.93;;
46723;SDS011;32463;48.298;11.620;2023-03-01T09:54:46;29.33;;;16.08;;
46723;SDS011;32463;48.298;11.620;2023-03-01T09:57:18;31.23;;;16.08;;
46723;SDS011;32463;48.298;11.620;2023-03-01T10:03:03;29.73;;;16.75;;
46723;SDS011;32463;48.298;11.620;2023-03-01T10:05:37;29.33;;;16.17;;
46723;SDS011;32463;48.298;11.620;2023-03-01T10:11:01;28.13;;;15.60;;
46723;SDS011;32463;48.298;11.620;2023-03-01T10:16:14;27.35;;;16.27;;
46723;SDS011;32463;48.298;11.620;2023-03-01T10:18:46;30.27;;;16.08;;
46723;SDS011;32463;48.298;11.620;2023-03-01T10:21:18;30.00;;;15.83;;
46723;SDS011;32463;48.298;11.620;2023-03-01T10:23:46;27.45;;;15.55;;
46723;SDS011;32463;48.298;11.620;2023-03-01T10:26:36;26.85;;;15.68;;
46723;SDS011;32463;48.298;11.620;2023-03-01T10:29:31;27.48;;;15.48;;
46723;SDS011;32463;48.298;11.620;2023-03-01T10:32:20;24.85;;;15.23;;
46723;SDS011;32463;48.298;11.620;2023-03-01T10:34:47;29.35;;;15.98;;
46723;SDS011;32463;48.298;11.620;2023-03-01T10:37:15;26.65;;;15.27;;
46723;SDS011;32463;48.298;11.620;2023-03-01T10:39:54;29.08;;;16.00;;
46723;SDS011;32463;48.298;11.620;2023-03-01T10:42:26;27.33;;;16.35;;
46723;SDS011;32463;48.298;11.620;2023-03-01T10:47:42;26.73;;;15.30;;
46723;SDS011;32463;48.298;11.620;2023-03-01T10:50:19;26.02;;;15.50;;
46723;SDS011;32463;48.298;11.620;2023-03-01T10:53:00;26.73;;;15.20;;
46723;SDS011;32463;48.298;11.620;2023-03-01T11:00:48;26.55;;;15.43;;
46723;SDS011;32463;48.298;11.620;2023-03-01T11:03:21;27.55;;;16.23;;
46723;SDS011;32463;48.298;11.620;2023-03-01T11:05:54;27.00;;;16.35;;
46723;SDS011;32463;48.298;11.620;2023-03-01T11:08:32;27.83;;;16.30;;
46723;SDS011;32463;48.298;11.620;2023-03-01T11:11:04;24.50;;;15.32;;
46723;SDS011;32463;48.298;11.620;2023-03-01T11:13:52;26.88;;;15.63;;
46723;SDS011;32463;48.298;11.620;2023-03-01T11:16:24;27.38;;;16.13;;
46723;SDS011;32463;48.298;11.620;2023-03-01T11:21:36;24.70;;;15.77;;
46723;SDS011;32463;48.298;11.620;2023-03-01T11:24:05;25.98;;;15.95;;
46723;SDS011;32463;48.298;11.620;2023-03-01T11:26:37;24.80;;;15.27;;
46723;SDS011;32463;48.298;11.620;2023-03-01T11:29:10;24.50;;;15.75;;
46723;SDS011;32463;48.298;11.620;2023-03-01T11:31:43;23.67;;;15.35;;
46723;SDS011;32463;48.298;11.620;2023-03-01T11:34:13;23.27;;;15.35;;
46723;SDS011;32463;48.298;11.620;2023-03-01T11:36:53;25.67;;;15.60;;
46723;SDS011;32463;48.298;11.620;2023-03-01T11:39:42;27.45;;;16.13;;
46723;SDS011;32463;48.298;11.620;2023-03-01T11:45:11;23.27;;;15.32;;
46723;SDS011;32463;48.298;11.620;2023-03-01T11:50:40;29.42;;;15.73;;
46723;SDS011;32463;48.298;11.620;2023-03-01T12:17:55;20.85;;;14.45;;
46723;SDS011;32463;48.298;11.620;2023-03-01T12:20:32;26.05;;;14.63;;
46723;SDS011;32463;48.298;11.620;2023-03-01T12:28:51;21.63;;;15.52;;
46723;SDS011;32463;48.298;11.620;2023-03-01T12:45:39;24.17;;;15.05;;
46723;SDS011;32463;48.298;11.620;2023-03-01T12:50:54;21.55;;;14.73;;
46723;SDS011;32463;48.298;11.620;2023-03-01T12:53:32;18.95;;;13.82;;
46723;SDS011;32463;48.298;11.620;2023-03-01T12:56:04;22.98;;;15.25;;
46723;SDS011;32463;48.298;11.620;2023-03-01T12:58:50;20.98;;;14.55;;
46723;SDS011;32463;48.298;11.620;2023-03-01T13:07:16;20.73;;;14.20;;
46723;SDS011;32463;48.298;11.620;2023-03-01T13:17:54;23.17;;;13.88;;
46723;SDS011;32463;48.298;11.620;2023-03-01T13:20:23;17.10;;;12.98;;
46723;SDS011;32463;48.298;11.620;2023-03-01T13:23:07;20.02;;;13.68;;
46723;SDS011;32463;48.298;11.620;2023-03-01T13:31:00;20.05;;;14.25;;
46723;SDS011;32463;48.298;11.620;2023-03-01T13:35:59;18.35;;;13.77;;
46723;SDS011;32463;48.298;11.620;2023-03-01T13:38:36;18.50;;;14.00;;
46723;SDS011;32463;48.298;11.620;2023-03-01T13:46:50;19.77;;;13.82;;
46723;SDS011;32463;48.298;11.620;2023-03-01T13:49:27;18.00;;;13.80;;
46723;SDS011;32463;48.298;11.620;2023-03-01T13:52:01;19.38;;;13.40;;
46723;SDS011;32463;48.298;11.620;2023-03-01T13:54:30;20.52;;;13.40;;
46723;SDS011;32463;48.298;11.620;2023-03-01T13:56:59;19.05;;;13.50;;
46723;SDS011;32463;48.298;11.620;2023-03-01T13:59:27;20.30;;;13.93;;
46723;SDS011;32463;48.298;11.620;2023-03-01T14:01:59;18.98;;;14.52;;
46723;SDS011;32463;48.298;11.620;2023-03-01T14:04:30;18.73;;;13.32;;
46723;SDS011;32463;48.298;11.620;2023-03-01T14:09:37;19.20;;;13.50;;
46723;SDS011;32463;48.298;11.620;2023-03-01T14:18:10;19.00;;;13.57;;
46723;SDS011;32463;48.298;11.620;2023-03-01T14:20:48;20.50;;;13.82;;
46723;SDS011;32463;48.298;11.620;2023-03-01T14:23:18;19.65;;;13.13;;
46723;SDS011;32463;48.298;11.620;2023-03-01T14:25:48;20.33;;;13.40;;
46723;SDS011;32463;48.298;11.620;2023-03-01T14:28:18;25.55;;;14.93;;
46723;SDS011;32463;48.298;11.620;2023-03-01T14:30:49;21.63;;;13.35;;
46723;SDS011;32463;48.298;11.620;2023-03-01T14:36:08;21.35;;;13.65;;
46723;SDS011;32463;48.298;11.620;2023-03-01T14:43:44;19.05;;;12.75;;
46723;SDS011;32463;48.298;11.620;2023-03-01T14:46:17;20.52;;;12.88;;
46723;SDS011;32463;48.298;11.620;2023-03-01T14:49:04;26.95;;;13.18;;
46723;SDS011;32463;48.298;11.620;2023-03-01T14:51:36;19.10;;;12.20;;
46723;SDS011;32463;48.298;11.620;2023-03-01T14:54:10;19.58;;;12.18;;
46723;SDS011;32463;48.298;11.620;2023-03-01T14:56:47;20.70;;;12.93;;
46723;SDS011;32463;48.298;11.620;2023-03-01T14:59:14;21.63;;;12.18;;
46723;SDS011;32463;48.298;11.620;2023-03-01T15:01:41;20.95;;;13.05;;
46723;SDS011;32463;48.298;11.620;2023-03-01T15:04:11;19.52;;;12.23;;
46723;SDS011;32463;48.298;11.620;2023-03-01T15:06:39;18.55;;;11.85;;
46723;SDS011;32463;48.298;11.620;2023-03-01T15:09:06;24.55;;;12.30;;
46723;SDS011;32463;48.298;11.620;2023-03-01T15:11:38;20.95;;;11.77;;
46723;SDS011;32463;48.298;11.620;2023-03-01T15:16:53;17.75;;;10.70;;
46723;SDS011;32463;48.298;11.620;2023-03-01T15:19:19;21.75;;;12.38;;
46723;SDS011;32463;48.298;11.620;2023-03-01T15:21:48;20.05;;;12.05;;
46723;SDS011;32463;48.298;11.620;2023-03-01T15:24:17;21.35;;;11.48;;
46723;SDS011;32463;48.298;11.620;2023-03-01T15:29:26;20.13;;;11.40;;
46723;SDS011;32463;48.298;11.620;2023-03-01T15:34:37;16.85;;;9.82;;
46723;SDS011;32463;48.298;11.620;2023-03-01T15:37:05;21.25;;;11.48;;
46723;SDS011;32463;48.298;11.620;2023-03-01T15:39:38;18.50;;;10.60;;
46723;SDS011;32463;48.298;11.620;2023-03-01T15:42:09;18.55;;;10.82;;
46723;SDS011;32463;48.298;11.620;2023-03-01T15:45:20;18.95;;;10.98;;
46723;SDS011;32463;48.298;11.620;2023-03-01T15:47:50;18.95;;;10.63;;
46723;SDS011;32463;48.298;11.620;2023-03-01T15:50:20;17.35;;;10.25;;
46723;SDS011;32463;48.298;11.620;2023-03-01T15:52:50;18.02;;;10.20;;
46723;SDS011;32463;48.298;11.620;2023-03-01T15:55:18;19.10;;;10.82;;
46723;SDS011;32463;48.298;11.620;2023-03-01T15:57:45;19.15;;;9.93;;
46723;SDS011;32463;48.298;11.620;2023-03-01T16:00:13;17.52;;;9.77;;
46723;SDS011;32463;48.298;11.620;2023-03-01T16:02:41;17.75;;;10.07;;
46723;SDS011;32463;48.298;11.620;2023-03-01T16:05:15;19.50;;;9.85;;
46723;SDS011;32463;48.298;11.620;2023-03-01T16:07:46;16.20;;;9.88;;
46723;SDS011;32463;48.298;11.620;2023-03-01T16:10:12;17.58;;;10.10;;
46723;SDS011;32463;48.298;11.620;2023-03-01T16:12:39;17.00;;;9.55;;
46723;SDS011;32463;48.298;11.620;2023-03-01T16:15:12;19.00;;;10.30;;
46723;SDS011;32463;48.298;11.620;2023-03-01T16:17:43;18.20;;;9.23;;
46723;SDS011;32463;48.298;11.620;2023-03-01T16:20:10;23.08;;;11.18;;
46723;SDS011;32463;48.298;11.620;2023-03-01T16:22:36;15.70;;;9.80;;
46723;SDS011;32463;48.298;11.620;2023-03-01T16:25:04;20.63;;;9.85;;
46723;SDS011;32463;48.298;11.620;2023-03-01T16:27:31;20.23;;;9.75;;
46723;SDS011;32463;48.298;11.620;2023-03-01T16:29:57;16.25;;;9.20;;
46723;SDS011;32463;48.298;11.620;2023-03-01T16:32:23;17.88;;;9.57;;
46723;SDS011;32463;48.298;11.620;2023-03-01T16:34:50;17.95;;;9.55;;
46723;SDS011;32463;48.298;11.620;2023-03-01T16:37:16;23.67;;;10.73;;
46723;SDS011;32463;48.298;11.620;2023-03-01T16:39:44;16.75;;;9.10;;
46723;SDS011;32463;48.298;11.620;2023-03-01T16:42:10;19.15;;;9.45;;
46723;SDS011;32463;48.298;11.620;2023-03-01T16:44:37;17.42;;;9.70;;
46723;SDS011;32463;48.298;11.620;2023-03-01T16:47:03;16.95;;;9.18;;
46723;SDS011;32463;48.298;11.620;2023-03-01T16:49:30;16.95;;;9.13;;
46723;SDS011;32463;48.298;11.620;2023-03-01T16:51:56;15.90;;;8.70;;
46723;SDS011;32463;48.298;11.620;2023-03-01T16:54:24;18.55;;;9.75;;
46723;SDS011;32463;48.298;11.620;2023-03-01T16:56:50;15.55;;;9.20;;